Time;durP1;ratioP1;P1;durP2;ratioP2;P2;SDS_P1;SDS_P2;PMS_P1;PMS_P2;Temp;Humidity;BMP_temperature;BMP_pressure;BME280_temperature;BME280_humidity;BME280_pressure;Samples;Min_cycle;Max_cycle;Signal;HPM_P1;HPM_P2
2021/01/03 00:01:08;;;;;;;64.05;26.05;;;;;;;;;;5072067;28;20021;-74
2021/01/03 00:03:34;;;;;;;66.50;25.27;;;;;;;;;;5070708;28;20028;-74
2021/01/03 00:06:00;;;;;;;75.53;32.90;;;;;;;;;;5072310;28;20359;-74
2021/01/03 00:08:26;;;;;;;76.93;30.98;;;;;;;;;;5071754;28;20460;-74
2021/01/03 00:10:52;;;;;;;81.40;33.65;;;;;;;;;;5071815;28;20108;-74
2021/01/03 00:13:18;;;;;;;73.15;29.98;;;;;;;;;;5070773;28;20020;-74
2021/01/03 00:15:44;;;;;;;81.93;33.22;;;;;;;;;;5050372;28;20111;-73
2021/01/03 00:18:10;;;;;;;68.07;27.92;;;;;;;;;;5050552;28;20079;-74
2021/01/03 00:20:37;;;;;;;76.57;33.00;;;;;;;;;;5051565;28;20054;-74
2021/01/03 00:23:03;;;;;;;79.65;33.03;;;;;;;;;;5051842;28;20017;-74
2021/01/03 00:25:29;;;;;;;72.70;31.33;;;;;;;;;;5050599;28;20013;-74
2021/01/03 00:27:55;;;;;;;75.43;30.52;;;;;;;;;;5054598;28;20425;-73
2021/01/03 00:30:22;;;;;;;74.47;32.55;;;;;;;;;;5054340;28;20025;-74
2021/01/03 00:32:48;;;;;;;77.57;30.85;;;;;;;;;;5054057;28;20028;-74
2021/01/03 00:35:17;;;;;;;77.05;33.97;;;;;;;;;;5055497;28;20016;-74
2021/01/03 00:37:44;;;;;;;76.85;33.45;;;;;;;;;;5053842;28;20017;-74
2021/01/03 00:40:12;;;;;;;70.13;28.00;;;;;;;;;;5055077;28;20127;-74
2021/01/03 00:42:38;;;;;;;71.10;30.17;;;;;;;;;;5055289;28;20098;-73
2021/01/03 00:45:05;;;;;;;71.03;32.03;;;;;;;;;;5055369;28;20049;-74
2021/01/03 00:47:31;;;;;;;74.35;29.50;;;;;;;;;;5055036;28;20383;-74
2021/01/03 00:49:57;;;;;;;68.78;29.52;;;;;;;;;;5054918;28;20084;-74
2021/01/03 00:52:23;;;;;;;71.55;30.48;;;;;;;;;;5055277;28;20068;-74
2021/01/03 00:54:49;;;;;;;69.28;27.73;;;;;;;;;;5054938;28;20392;-74
2021/01/03 00:57:15;;;;;;;81.85;33.95;;;;;;;;;;5055160;28;20021;-74
2021/01/03 00:59:41;;;;;;;82.13;31.20;;;;;;;;;;5053509;28;20028;-74
2021/01/03 01:02:07;;;;;;;78.82;33.00;;;;;;;;;;5054749;28;20350;-74
2021/01/03 01:04:33;;;;;;;66.85;27.88;;;;;;;;;;5053669;28;20021;-74
2021/01/03 01:06:59;;;;;;;75.60;32.50;;;;;;;;;;5053376;28;20020;-74
2021/01/03 01:09:25;;;;;;;57.13;25.35;;;;;;;;;;5054858;28;20017;-74
2021/01/03 01:11:53;;;;;;;57.50;25.77;;;;;;;;;;5053445;28;20024;-74
2021/01/03 01:14:19;;;;;;;53.28;22.77;;;;;;;;;;5054780;28;20017;-73
2021/01/03 01:16:45;;;;;;;62.42;28.80;;;;;;;;;;5053185;28;20510;-73
2021/01/03 01:19:12;;;;;;;63.53;28.00;;;;;;;;;;5054588;28;20017;-73
2021/01/03 01:21:38;;;;;;;60.38;25.63;;;;;;;;;;5054642;28;20021;-73
2021/01/03 01:24:04;;;;;;;72.38;30.50;;;;;;;;;;5053321;28;20020;-73
2021/01/03 01:26:30;;;;;;;60.75;27.65;;;;;;;;;;5054561;28;20025;-74
2021/01/03 01:28:56;;;;;;;58.72;24.45;;;;;;;;;;5054320;28;20366;-74
2021/01/03 01:31:22;;;;;;;52.42;22.27;;;;;;;;;;5054789;28;20025;-73
2021/01/03 01:33:48;;;;;;;57.65;25.77;;;;;;;;;;5053923;28;20032;-74
2021/01/03 01:36:14;;;;;;;60.65;26.45;;;;;;;;;;5053122;28;20029;-74
2021/01/03 01:38:40;;;;;;;47.03;22.90;;;;;;;;;;5053538;28;20032;-74
2021/01/03 01:41:06;;;;;;;54.35;25.25;;;;;;;;;;5054053;28;20045;-73
2021/01/03 01:43:32;;;;;;;57.88;26.25;;;;;;;;;;5054335;28;20013;-74
2021/01/03 01:45:58;;;;;;;62.10;26.63;;;;;;;;;;5053952;28;20017;-74
2021/01/03 01:48:27;;;;;;;61.40;28.15;;;;;;;;;;5054126;28;20024;-74
2021/01/03 01:50:55;;;;;;;55.33;24.65;;;;;;;;;;5053921;28;20075;-74
2021/01/03 01:53:32;;;;;;;62.78;27.90;;;;;;;;;;5052690;28;20021;-72
2021/01/03 01:56:02;;;;;;;67.75;29.55;;;;;;;;;;5054031;28;20037;-73
2021/01/03 01:58:33;;;;;;;65.00;30.23;;;;;;;;;;5053995;28;20031;-73
2021/01/03 02:01:02;;;;;;;60.90;25.63;;;;;;;;;;5052311;28;20499;-73
2021/01/03 02:03:32;;;;;;;66.30;27.77;;;;;;;;;;5052503;28;20040;-74
2021/01/03 02:06:06;;;;;;;60.70;27.73;;;;;;;;;;5052262;28;20016;-73
2021/01/03 02:08:40;;;;;;;55.50;27.15;;;;;;;;;;5052443;28;20021;-73
2021/01/03 02:11:08;;;;;;;57.83;28.25;;;;;;;;;;5053923;28;20438;-73
2021/01/03 02:13:37;;;;;;;58.75;27.30;;;;;;;;;;5052435;28;20074;-73
2021/01/03 02:16:06;;;;;;;63.63;28.08;;;;;;;;;;5053395;28;20021;-73
2021/01/03 02:18:32;;;;;;;59.30;26.48;;;;;;;;;;5053612;28;20353;-73
2021/01/03 02:21:13;;;;;;;59.42;26.35;;;;;;;;;;5053168;28;20056;-73
2021/01/03 02:23:43;;;;;;;67.03;28.95;;;;;;;;;;5051881;28;20025;-73
2021/01/03 02:26:10;;;;;;;67.10;28.40;;;;;;;;;;5052094;28;20017;-73
2021/01/03 02:28:41;;;;;;;59.45;26.17;;;;;;;;;;5053361;28;20100;-73
2021/01/03 02:31:08;;;;;;;58.72;25.65;;;;;;;;;;5051838;28;20040;-74
2021/01/03 02:33:37;;;;;;;56.70;26.27;;;;;;;;;;5053317;28;20017;-74
2021/01/03 02:36:07;;;;;;;53.85;23.30;;;;;;;;;;5051777;28;20017;-74
2021/01/03 02:38:36;;;;;;;57.15;24.17;;;;;;;;;;5051541;28;20024;-74
2021/01/03 02:41:02;;;;;;;57.15;24.55;;;;;;;;;;5052479;28;20044;-75
2021/01/03 02:43:28;;;;;;;52.40;23.10;;;;;;;;;;5051912;28;20403;-74
2021/01/03 02:45:55;;;;;;;59.22;25.20;;;;;;;;;;5053224;28;20396;-75
2021/01/03 02:48:22;;;;;;;46.08;20.30;;;;;;;;;;5052635;28;20358;-74
2021/01/03 02:50:49;;;;;;;60.67;25.77;;;;;;;;;;5052214;28;20454;-75
2021/01/03 02:53:16;;;;;;;62.88;27.60;;;;;;;;;;5051683;28;20055;-75
2021/01/03 02:55:42;;;;;;;60.35;24.73;;;;;;;;;;5052891;28;20028;-75
2021/01/03 02:58:08;;;;;;;54.88;26.35;;;;;;;;;;5051358;28;20031;-75
2021/01/03 03:00:36;;;;;;;59.22;26.00;;;;;;;;;;5052807;28;20025;-75
2021/01/03 03:03:02;;;;;;;48.75;19.98;;;;;;;;;;5052491;28;20450;-75
2021/01/03 03:05:28;;;;;;;48.30;22.13;;;;;;;;;;5052706;28;20017;-74
2021/01/03 03:07:54;;;;;;;62.10;26.05;;;;;;;;;;5052437;28;20040;-74
2021/01/03 03:10:21;;;;;;;65.60;26.63;;;;;;;;;;5051353;28;20021;-73
2021/01/03 03:12:51;;;;;;;52.65;20.60;;;;;;;;;;5052480;28;20025;-73
2021/01/03 03:15:18;;;;;;;58.47;27.05;;;;;;;;;;5051175;28;20060;-72
2021/01/03 03:17:44;;;;;;;81.70;31.25;;;;;;;;;;5052547;28;20476;-73
2021/01/03 03:20:10;;;;;;;63.40;27.58;;;;;;;;;;5051962;28;20021;-73
2021/01/03 03:22:37;;;;;;;63.67;25.83;;;;;;;;;;5051269;28;20021;-75
2021/01/03 03:25:03;;;;;;;48.42;19.95;;;;;;;;;;5052170;28;20453;-74
2021/01/03 03:27:29;;;;;;;66.03;28.52;;;;;;;;;;5051145;28;20386;-76
2021/01/03 03:29:55;;;;;;;50.10;22.70;;;;;;;;;;5050941;28;20478;-74
2021/01/03 03:32:21;;;;;;;75.20;32.83;;;;;;;;;;5052342;28;20009;-74
2021/01/03 03:34:47;;;;;;;68.05;29.45;;;;;;;;;;5050792;28;20405;-74
2021/01/03 03:37:13;;;;;;;78.18;30.88;;;;;;;;;;5050987;28;20116;-74
2021/01/03 03:39:39;;;;;;;78.45;30.27;;;;;;;;;;5050863;28;20076;-75
2021/01/03 03:42:05;;;;;;;74.68;31.95;;;;;;;;;;5050841;28;20056;-75
2021/01/03 03:44:31;;;;;;;73.00;30.40;;;;;;;;;;5052041;28;20095;-75
2021/01/03 03:47:01;;;;;;;76.15;27.55;;;;;;;;;;5050598;28;20024;-75
2021/01/03 03:49:27;;;;;;;65.10;29.00;;;;;;;;;;5052306;28;20486;-73
2021/01/03 03:51:56;;;;;;;59.80;25.55;;;;;;;;;;5050744;28;20017;-74
2021/01/03 03:54:23;;;;;;;67.78;25.60;;;;;;;;;;5052254;28;20099;-74
2021/01/03 03:56:52;;;;;;;78.13;31.20;;;;;;;;;;5051961;28;20016;-74
2021/01/03 03:59:19;;;;;;;62.85;25.10;;;;;;;;;;5052079;28;20025;-75
2021/01/03 04:01:45;;;;;;;62.05;28.00;;;;;;;;;;5052292;28;20017;-75
2021/01/03 04:04:11;;;;;;;56.53;23.48;;;;;;;;;;5055888;28;20100;-75
2021/01/03 04:06:37;;;;;;;64.40;26.25;;;;;;;;;;5054826;28;20140;-75
2021/01/03 04:09:03;;;;;;;71.65;30.30;;;;;;;;;;5054511;28;20020;-75
2021/01/03 04:11:29;;;;;;;78.43;32.25;;;;;;;;;;5056043;28;20027;-74
2021/01/03 04:13:55;;;;;;;78.85;30.67;;;;;;;;;;5055739;28;20009;-74
2021/01/03 04:16:21;;;;;;;60.10;25.13;;;;;;;;;;5055912;28;20013;-74
2021/01/03 04:18:47;;;;;;;79.00;32.58;;;;;;;;;;5055873;28;20021;-74
2021/01/03 04:21:14;;;;;;;80.50;32.88;;;;;;;;;;5055563;28;20035;-74
2021/01/03 04:23:41;;;;;;;86.70;36.70;;;;;;;;;;5055744;28;20024;-73
2021/01/03 04:26:07;;;;;;;80.88;34.42;;;;;;;;;;5055526;28;20013;-73
2021/01/03 04:28:33;;;;;;;76.80;27.70;;;;;;;;;;5055950;28;20092;-73
2021/01/03 04:30:59;;;;;;;84.50;35.33;;;;;;;;;;5055446;28;20067;-73
2021/01/03 04:33:25;;;;;;;88.03;35.50;;;;;;;;;;5055626;28;20040;-73
2021/01/03 04:35:51;;;;;;;83.00;32.33;;;;;;;;;;5055085;28;20017;-73
2021/01/03 04:38:17;;;;;;;85.78;34.28;;;;;;;;;;5054077;28;20119;-74
2021/01/03 04:40:46;;;;;;;57.28;23.23;;;;;;;;;;5055516;28;20072;-75
2021/01/03 04:43:14;;;;;;;63.92;24.10;;;;;;;;;;5053982;28;20110;-74
2021/01/03 04:45:42;;;;;;;83.65;32.03;;;;;;;;;;5055427;28;20013;-74
2021/01/03 04:48:15;;;;;;;48.83;18.45;;;;;;;;;;5055114;28;20024;-74
2021/01/03 04:50:47;;;;;;;76.75;29.00;;;;;;;;;;5053958;28;20099;-74
2021/01/03 04:53:37;;;;;;;86.57;33.72;;;;;;;;;;5055207;28;20112;-73
2021/01/03 04:56:22;;;;;;;93.65;37.28;;;;;;;;;;5054916;28;20079;-73
2021/01/03 04:58:54;;;;;;;87.95;32.45;;;;;;;;;;5055127;28;20017;-74
2021/01/03 05:01:38;;;;;;;84.88;35.10;;;;;;;;;;5053680;28;20369;-74
2021/01/03 05:04:04;;;;;;;93.85;38.30;;;;;;;;;;5054559;28;20016;-74
2021/01/03 05:06:31;;;;;;;75.32;28.77;;;;;;;;;;5053690;28;20025;-74
2021/01/03 05:09:01;;;;;;;82.13;32.15;;;;;;;;;;5054970;28;20314;-74
2021/01/03 05:11:27;;;;;;;;;;;;;;;;;;5054035;28;20434;-73
2021/01/03 05:13:54;;;;;;;79.15;33.78;;;;;;;;;;5054181;28;19901;-73
2021/01/03 05:16:20;;;;;;;84.32;33.75;;;;;;;;;;5054801;28;20101;-73
2021/01/03 05:18:46;;;;;;;87.95;33.00;;;;;;;;;;5054502;28;20009;-73
2021/01/03 05:21:12;;;;;;;65.47;24.95;;;;;;;;;;5054107;28;20029;-73
2021/01/03 05:23:39;;;;;;;82.78;35.85;;;;;;;;;;5053364;28;20059;-73
2021/01/03 05:26:06;;;;;;;79.18;32.80;;;;;;;;;;5054692;28;20017;-73
2021/01/03 05:28:34;;;;;;;77.45;34.95;;;;;;;;;;5054584;28;20035;-73
2021/01/03 05:31:12;;;;;;;80.93;33.15;;;;;;;;;;5052926;28;20032;-73
2021/01/03 05:33:48;;;;;;;63.40;27.35;;;;;;;;;;5054500;28;20017;-74
2021/01/03 05:36:21;;;;;;;76.35;31.98;;;;;;;;;;5054171;28;20025;-73
2021/01/03 05:38:47;;;;;;;73.38;31.30;;;;;;;;;;5054645;28;20020;-73
2021/01/03 05:41:17;;;;;;;56.50;19.80;;;;;;;;;;5052581;28;20477;-73
2021/01/03 05:43:44;;;;;;;75.70;28.50;;;;;;;;;;5054136;28;20012;-73
2021/01/03 05:46:20;;;;;;;64.47;25.83;;;;;;;;;;5054384;28;20040;-73
2021/01/03 05:48:57;;;;;;;64.30;26.17;;;;;;;;;;5054278;28;20021;-73
2021/01/03 05:51:29;;;;;;;68.47;28.10;;;;;;;;;;5054351;28;20096;-74
2021/01/03 05:54:09;;;;;;;80.05;34.17;;;;;;;;;;5052811;28;20021;-74
2021/01/03 05:56:36;;;;;;;69.05;29.40;;;;;;;;;;5054017;28;20044;-74
2021/01/03 05:59:02;;;;;;;66.72;25.95;;;;;;;;;;5053499;28;20025;-74
2021/01/03 06:01:30;;;;;;;44.28;15.77;;;;;;;;;;5052483;28;20040;-74
2021/01/03 06:04:04;;;;;;;92.25;33.78;;;;;;;;;;5052377;28;20465;-73
2021/01/03 06:06:37;;;;;;;78.35;33.13;;;;;;;;;;5052534;28;20021;-73
2021/01/03 06:09:03;;;;;;;84.13;38.53;;;;;;;;;;5053450;28;20087;-73
2021/01/03 06:11:29;;;;;;;77.95;31.48;;;;;;;;;;5053716;28;20025;-73
2021/01/03 06:13:59;;;;;;;76.18;34.55;;;;;;;;;;5052441;28;20036;-73
2021/01/03 06:16:30;;;;;;;72.25;31.42;;;;;;;;;;5052349;28;20025;-73
2021/01/03 06:19:06;;;;;;;61.33;28.67;;;;;;;;;;5053650;28;20020;-73
2021/01/03 06:21:42;;;;;;;78.25;34.38;;;;;;;;;;5053333;28;20109;-74
2021/01/03 06:24:17;;;;;;;83.95;34.22;;;;;;;;;;5051078;28;20017;-74
2021/01/03 06:26:45;;;;;;;61.33;25.42;;;;;;;;;;5053442;28;20052;-73
2021/01/03 06:29:19;;;;;;;84.63;36.67;;;;;;;;;;5053460;28;20024;-74
2021/01/03 06:31:45;;;;;;;54.95;21.88;;;;;;;;;;5053089;28;20017;-74
2021/01/03 06:34:41;;;;;;;42.35;17.83;;;;;;;;;;5053386;28;20047;-74
2021/01/03 06:37:07;;;;;;;76.18;32.40;;;;;;;;;;5046855;28;20040;-74
2021/01/03 06:39:41;;;;;;;71.85;32.38;;;;;;;;;;5052845;28;20052;-74
2021/01/03 06:42:26;;;;;;;70.15;32.90;;;;;;;;;;5051690;28;20013;-74
2021/01/03 06:45:10;;;;;;;65.65;27.80;;;;;;;;;;5053513;28;20105;-73
2021/01/03 06:47:56;;;;;;;67.55;32.40;;;;;;;;;;5053019;28;20087;-73
2021/01/03 06:50:43;;;;;;;69.88;31.08;;;;;;;;;;5052779;28;20503;-74
2021/01/03 06:53:27;;;;;;;71.55;31.52;;;;;;;;;;5051410;28;20053;-74
2021/01/03 06:56:07;;;;;;;74.70;33.70;;;;;;;;;;5051560;28;20025;-74
2021/01/03 06:58:51;;;;;;;76.38;33.28;;;;;;;;;;5052921;28;20519;-74
2021/01/03 07:01:20;;;;;;;71.85;32.10;;;;;;;;;;5052420;28;20056;-75
2021/01/03 07:03:48;;;;;;;45.58;22.38;;;;;;;;;;5052714;28;20091;-74
2021/01/03 07:06:14;;;;;;;39.75;18.67;;;;;;;;;;5051098;28;20053;-73
2021/01/03 07:08:42;;;;;;;65.68;31.17;;;;;;;;;;5051317;28;20021;-73
2021/01/03 07:11:27;;;;;;;67.05;31.35;;;;;;;;;;5051153;28;20025;-74
2021/01/03 07:13:53;;;;;;;59.60;25.00;;;;;;;;;;5051299;28;20009;-73
2021/01/03 07:16:38;;;;;;;60.70;26.80;;;;;;;;;;5052582;28;20036;-73
2021/01/03 07:19:05;;;;;;;61.40;28.23;;;;;;;;;;5052476;28;20025;-74
2021/01/03 07:21:36;;;;;;;58.60;26.23;;;;;;;;;;5051092;28;20104;-75
2021/01/03 07:24:21;;;;;;;52.47;22.35;;;;;;;;;;5052066;28;20017;-73
2021/01/03 07:27:07;;;;;;;58.05;28.75;;;;;;;;;;5051041;28;20025;-72
2021/01/03 07:29:33;;;;;;;55.90;26.13;;;;;;;;;;5051086;28;20032;-72
2021/01/03 07:32:05;;;;;;;60.22;27.50;;;;;;;;;;5052569;28;20021;-73
2021/01/03 07:34:33;;;;;;;50.47;25.42;;;;;;;;;;5050924;28;20063;-73
2021/01/03 07:37:12;;;;;;;55.45;27.15;;;;;;;;;;5050692;28;20449;-73
2021/01/03 07:39:59;;;;;;;59.78;29.30;;;;;;;;;;5052088;28;20317;-73
2021/01/03 07:42:27;;;;;;;55.70;27.75;;;;;;;;;;5051811;28;20100;-73
2021/01/03 07:44:53;;;;;;;44.10;20.17;;;;;;;;;;5052279;28;20025;-73
2021/01/03 07:47:42;;;;;;;47.85;20.30;;;;;;;;;;5051873;28;20027;-73
2021/01/03 07:50:20;;;;;;;44.78;18.60;;;;;;;;;;5064178;28;20075;-73
2021/01/03 07:52:59;;;;;;;53.58;27.50;;;;;;;;;;5052070;28;20497;-74
2021/01/03 07:55:34;;;;;;;54.83;26.02;;;;;;;;;;5051806;28;20021;-75
2021/01/03 07:58:03;;;;;;;42.33;16.88;;;;;;;;;;5057707;28;20025;-75
2021/01/03 08:00:32;;;;;;;43.38;17.13;;;;;;;;;;5059944;28;20025;-75
2021/01/03 08:03:04;;;;;;;51.80;25.20;;;;;;;;;;5055466;28;20029;-74
2021/01/03 08:05:30;;;;;;;51.17;26.15;;;;;;;;;;5050534;28;20017;-75
2021/01/03 08:08:16;;;;;;;46.35;22.35;;;;;;;;;;5051990;28;20450;-75
2021/01/03 08:10:43;;;;;;;52.90;20.02;;;;;;;;;;5049548;28;20503;-74
2021/01/03 08:13:18;;;;;;;49.65;23.65;;;;;;;;;;5050032;28;20084;-74
2021/01/03 08:15:44;;;;;;;33.53;14.27;;;;;;;;;;5068228;28;20009;-75
2021/01/03 08:18:15;;;;;;;54.90;24.67;;;;;;;;;;5060758;28;20017;-74
2021/01/03 08:20:41;;;;;;;50.20;25.40;;;;;;;;;;5059487;28;20075;-75
2021/01/03 08:23:24;;;;;;;51.92;26.30;;;;;;;;;;5060970;28;20094;-75
2021/01/03 08:26:01;;;;;;;44.45;19.17;;;;;;;;;;5065884;28;20112;-75
2021/01/03 08:28:27;;;;;;;38.42;17.08;;;;;;;;;;5060095;28;20017;-75
2021/01/03 08:30:53;;;;;;;44.70;21.33;;;;;;;;;;5058413;28;20098;-75
2021/01/03 08:33:48;;;;;;;46.65;25.45;;;;;;;;;;5057885;28;20040;-75
2021/01/03 08:36:19;;;;;;;50.17;25.85;;;;;;;;;;5070512;28;20534;-75
2021/01/03 08:38:45;;;;;;;48.25;25.48;;;;;;;;;;5070284;28;20020;-75
2021/01/03 08:41:14;;;;;;;40.40;19.17;;;;;;;;;;5069898;28;20076;-75
2021/01/03 08:43:43;;;;;;;37.53;18.13;;;;;;;;;;5071725;28;20112;-75
2021/01/03 08:46:09;;;;;;;43.30;21.38;;;;;;;;;;5071460;28;20150;-76
2021/01/03 08:48:35;;;;;;;41.70;22.48;;;;;;;;;;5074334;28;20360;-75
2021/01/03 08:51:19;;;;;;;41.78;20.60;;;;;;;;;;5073881;28;20051;-75
2021/01/03 08:53:45;;;;;;;37.72;19.67;;;;;;;;;;5075228;28;20046;-75
2021/01/03 08:56:15;;;;;;;42.45;22.38;;;;;;;;;;5074940;28;20099;-75
2021/01/03 08:58:42;;;;;;;32.90;16.00;;;;;;;;;;5062996;28;20013;-75
2021/01/03 09:01:17;;;;;;;31.52;14.30;;;;;;;;;;5054673;28;20040;-74
2021/01/03 09:03:44;;;;;;;34.70;18.05;;;;;;;;;;5054865;28;20083;-74
2021/01/03 09:06:10;;;;;;;31.90;15.65;;;;;;;;;;5053218;28;20032;-74
2021/01/03 09:08:42;;;;;;;33.40;18.98;;;;;;;;;;5054761;28;20021;-74
2021/01/03 09:11:13;;;;;;;32.25;17.00;;;;;;;;;;5054594;28;20377;-75
2021/01/03 09:13:46;;;;;;;37.20;20.23;;;;;;;;;;5053518;28;20036;-75
2021/01/03 09:16:12;;;;;;;28.10;14.25;;;;;;;;;;5053273;28;20086;-74
2021/01/03 09:18:54;;;;;;;38.03;21.80;;;;;;;;;;5054738;28;20028;-73
2021/01/03 09:21:20;;;;;;;40.70;21.08;;;;;;;;;;5054295;28;20040;-74
2021/01/03 09:23:49;;;;;;;30.48;14.20;;;;;;;;;;5054602;28;20051;-75
2021/01/03 09:26:15;;;;;;;35.92;18.83;;;;;;;;;;5054417;28;20413;-75
2021/01/03 09:28:42;;;;;;;33.30;16.08;;;;;;;;;;5054519;28;20017;-75
2021/01/03 09:31:08;;;;;;;33.95;14.25;;;;;;;;;;5054226;28;20033;-75
2021/01/03 09:33:35;;;;;;;35.13;19.67;;;;;;;;;;5054564;28;20020;-75
2021/01/03 09:36:21;;;;;;;25.65;10.90;;;;;;;;;;5074333;28;20040;-75
2021/01/03 09:38:56;;;;;;;31.95;15.88;;;;;;;;;;5066723;28;20017;-75
2021/01/03 09:41:29;;;;;;;27.17;11.55;;;;;;;;;;5062264;28;20048;-74
2021/01/03 09:44:07;;;;;;;32.40;15.68;;;;;;;;;;5064121;28;20013;-74
2021/01/03 09:46:52;;;;;;;31.48;15.68;;;;;;;;;;5062661;28;20431;-74
2021/01/03 09:49:29;;;;;;;31.15;16.30;;;;;;;;;;5060210;28;20470;-74
2021/01/03 09:52:01;;;;;;;25.50;13.55;;;;;;;;;;5068913;28;20044;-74
2021/01/03 09:54:35;;;;;;;27.52;13.35;;;;;;;;;;5061525;28;20017;-74
2021/01/03 09:57:01;;;;;;;25.00;13.45;;;;;;;;;;5054648;28;20021;-74
2021/01/03 09:59:27;;;;;;;25.05;14.07;;;;;;;;;;5053501;28;20607;-76
2021/01/03 10:01:53;;;;;;;28.30;11.80;;;;;;;;;;5053518;28;20032;-75
2021/01/03 10:04:22;;;;;;;26.17;14.60;;;;;;;;;;5052008;28;20021;-74
2021/01/03 10:06:51;;;;;;;22.48;12.90;;;;;;;;;;5052457;28;20029;-74
2021/01/03 10:09:23;;;;;;;26.80;12.90;;;;;;;;;;5049817;28;20111;-75
2021/01/03 10:11:49;;;;;;;23.38;13.55;;;;;;;;;;5050821;28;20024;-74
2021/01/03 10:14:28;;;;;;;27.50;12.63;;;;;;;;;;5051988;28;20051;-72
2021/01/03 10:16:54;;;;;;;35.33;10.95;;;;;;;;;;5052164;28;20044;-73
2021/01/03 10:19:21;;;;;;;24.88;13.40;;;;;;;;;;5053516;28;20450;-73
2021/01/03 10:21:48;;;;;;;26.55;13.93;;;;;;;;;;5051861;28;20033;-73
2021/01/03 10:24:19;;;;;;;21.83;11.38;;;;;;;;;;5051951;28;20116;-74
2021/01/03 10:26:47;;;;;;;25.42;11.70;;;;;;;;;;5052059;28;20489;-76
2021/01/03 10:29:14;;;;;;;28.13;13.27;;;;;;;;;;5051810;28;20036;-74
2021/01/03 10:31:51;;;;;;;25.63;12.68;;;;;;;;;;5051819;28;20017;-73
2021/01/03 10:34:19;;;;;;;25.75;13.43;;;;;;;;;;5051698;28;20048;-77
2021/01/03 10:36:45;;;;;;;29.17;14.40;;;;;;;;;;5052745;28;20016;-74
2021/01/03 10:39:12;;;;;;;22.95;12.50;;;;;;;;;;5051611;28;20111;-75
2021/01/03 10:41:39;;;;;;;20.88;11.55;;;;;;;;;;5052994;28;20041;-73
2021/01/03 10:44:06;;;;;;;28.27;11.68;;;;;;;;;;5053173;28;20016;-76
2021/01/03 10:46:32;;;;;;;27.35;12.52;;;;;;;;;;5052866;28;20025;-76
2021/01/03 10:48:58;;;;;;;30.17;11.88;;;;;;;;;;5051637;28;20021;-73
2021/01/03 10:51:50;;;;;;;28.08;12.13;;;;;;;;;;5051977;28;20058;-73
2021/01/03 10:54:21;;;;;;;24.38;12.10;;;;;;;;;;5050129;28;20506;-74
2021/01/03 10:56:47;;;;;;;;;;;;;;;;;;5053137;28;20021;-74
2021/01/03 10:59:13;;;;;;;23.15;11.48;;;;;;;;;;5051017;28;20242;-75
2021/01/03 11:01:39;;;;;;;36.08;10.43;;;;;;;;;;5051250;28;20028;-74
2021/01/03 11:04:05;;;;;;;29.15;12.43;;;;;;;;;;5052656;28;20017;-75
2021/01/03 11:06:35;;;;;;;29.80;13.20;;;;;;;;;;5052247;28;20017;-76
2021/01/03 11:09:01;;;;;;;28.00;11.23;;;;;;;;;;5052657;28;20103;-76
2021/01/03 11:11:27;;;;;;;24.88;10.52;;;;;;;;;;5050745;28;20025;-76
2021/01/03 11:13:53;;;;;;;25.27;13.18;;;;;;;;;;5052237;28;20009;-75
2021/01/03 11:16:19;;;;;;;22.02;12.10;;;;;;;;;;5051025;28;20529;-75
2021/01/03 11:18:45;;;;;;;21.77;11.68;;;;;;;;;;5051274;28;20071;-75
2021/01/03 11:21:15;;;;;;;20.48;10.70;;;;;;;;;;5050907;28;20032;-75
2021/01/03 11:23:41;;;;;;;22.60;10.10;;;;;;;;;;5051232;28;20024;-75
2021/01/03 11:26:07;;;;;;;22.60;10.85;;;;;;;;;;5051135;28;20278;-75
2021/01/03 11:28:33;;;;;;;18.77;10.73;;;;;;;;;;5050860;28;20017;-74
2021/01/03 11:30:59;;;;;;;20.45;10.57;;;;;;;;;;5050763;28;20618;-75
2021/01/03 11:33:25;;;;;;;22.35;8.98;;;;;;;;;;5050711;28;20028;-74
2021/01/03 11:35:51;;;;;;;24.90;10.55;;;;;;;;;;5052291;28;20027;-75
2021/01/03 11:38:17;;;;;;;15.43;9.05;;;;;;;;;;5051959;28;20021;-75
2021/01/03 11:40:43;;;;;;;17.52;9.48;;;;;;;;;;5051963;28;20040;-75
2021/01/03 11:43:09;;;;;;;17.55;9.27;;;;;;;;;;5050834;28;20021;-75
2021/01/03 11:45:35;;;;;;;18.15;9.65;;;;;;;;;;5050530;28;20025;-75
2021/01/03 11:48:02;;;;;;;17.25;8.93;;;;;;;;;;5052366;28;20028;-75
2021/01/03 11:50:29;;;;;;;23.17;9.40;;;;;;;;;;5051922;28;20025;-75
2021/01/03 11:52:55;;;;;;;24.60;10.20;;;;;;;;;;5051732;28;20370;-76
2021/01/03 11:55:21;;;;;;;18.38;8.43;;;;;;;;;;5052272;28;20017;-76
2021/01/03 11:57:47;;;;;;;23.10;10.15;;;;;;;;;;5052061;28;20021;-76
2021/01/03 12:00:14;;;;;;;20.15;9.60;;;;;;;;;;5051681;28;20021;-75
2021/01/03 12:02:41;;;;;;;19.52;7.97;;;;;;;;;;5052041;28;20021;-75
2021/01/03 12:05:08;;;;;;;17.85;8.00;;;;;;;;;;5051954;28;20572;-75
2021/01/03 12:07:34;;;;;;;22.23;9.88;;;;;;;;;;5051631;28;20088;-75
2021/01/03 12:10:00;;;;;;;22.23;9.88;;;;;;;;;;5052096;28;20298;-75
2021/01/03 12:12:26;;;;;;;21.38;8.13;;;;;;;;;;5050383;28;20021;-75
2021/01/03 12:14:52;;;;;;;17.52;9.45;;;;;;;;;;5051807;28;20017;-75
2021/01/03 12:17:19;;;;;;;18.50;9.60;;;;;;;;;;5050248;28;20372;-75
2021/01/03 12:19:46;;;;;;;20.55;12.02;;;;;;;;;;5050413;28;20021;-75
2021/01/03 12:22:12;;;;;;;25.05;10.15;;;;;;;;;;5052557;28;20395;-75
2021/01/03 12:24:38;;;;;;;24.73;16.00;;;;;;;;;;5055168;28;20373;-76
2021/01/03 12:27:04;;;;;;;21.48;11.85;;;;;;;;;;5055567;28;20070;-75
2021/01/03 12:29:31;;;;;;;67.63;33.97;;;;;;;;;;5053942;28;20074;-75
2021/01/03 12:31:59;;;;;;;61.60;30.08;;;;;;;;;;5055514;28;20108;-75
2021/01/03 12:34:26;;;;;;;26.35;14.23;;;;;;;;;;5053894;28;20024;-75
2021/01/03 12:36:53;;;;;;;26.33;13.20;;;;;;;;;;5055695;28;20044;-75
2021/01/03 12:39:20;;;;;;;26.65;15.43;;;;;;;;;;5053709;28;20013;-75
2021/01/03 12:41:46;;;;;;;22.77;10.38;;;;;;;;;;5055266;28;20021;-74
2021/01/03 12:44:13;;;;;;;24.63;10.95;;;;;;;;;;5054105;28;20020;-75
2021/01/03 12:46:42;;;;;;;27.88;15.07;;;;;;;;;;5053736;28;20083;-75
2021/01/03 12:49:08;;;;;;;28.38;15.82;;;;;;;;;;5054990;28;20024;-75
2021/01/03 12:51:34;;;;;;;30.95;17.40;;;;;;;;;;5063531;28;20032;-75
2021/01/03 12:54:00;;;;;;;26.90;13.52;;;;;;;;;;5074893;28;20017;-74
2021/01/03 12:56:28;;;;;;;24.02;10.68;;;;;;;;;;5074657;28;20025;-75
2021/01/03 12:58:55;;;;;;;30.63;12.73;;;;;;;;;;5073509;28;20407;-74
2021/01/03 13:01:22;;;;;;;23.80;11.73;;;;;;;;;;5074532;28;20666;-76
2021/01/03 13:03:48;;;;;;;28.23;14.27;;;;;;;;;;5074684;28;20396;-76
2021/01/03 13:06:14;;;;;;;28.95;17.05;;;;;;;;;;5072270;28;20024;-76
2021/01/03 13:08:40;;;;;;;29.15;16.42;;;;;;;;;;5072731;28;20020;-76
2021/01/03 13:11:06;;;;;;;29.10;14.55;;;;;;;;;;5072917;28;20439;-76
2021/01/03 13:13:33;;;;;;;27.60;12.88;;;;;;;;;;5072131;28;20169;-76
2021/01/03 13:15:59;;;;;;;27.85;15.70;;;;;;;;;;5053040;28;20013;-76
2021/01/03 13:18:25;;;;;;;26.13;14.75;;;;;;;;;;5052954;28;20369;-76
2021/01/03 13:20:51;;;;;;;24.90;12.05;;;;;;;;;;5052966;28;20377;-75
2021/01/03 13:23:17;;;;;;;28.75;14.32;;;;;;;;;;5054256;28;20077;-75
2021/01/03 13:25:43;;;;;;;29.50;13.73;;;;;;;;;;5054527;28;20013;-75
2021/01/03 13:28:09;;;;;;;26.20;14.07;;;;;;;;;;5053148;28;20028;-75
2021/01/03 13:30:37;;;;;;;31.30;15.00;;;;;;;;;;5052887;28;20021;-75
2021/01/03 13:33:03;;;;;;;36.85;14.27;;;;;;;;;;5052757;28;20071;-75
2021/01/03 13:35:29;;;;;;;36.25;13.32;;;;;;;;;;5052770;28;20028;-76
2021/01/03 13:37:55;;;;;;;28.98;13.82;;;;;;;;;;5057594;28;20013;-76
2021/01/03 13:40:21;;;;;;;28.50;15.90;;;;;;;;;;5052431;28;20037;-75
2021/01/03 13:42:47;;;;;;;29.23;16.00;;;;;;;;;;5052962;28;20395;-75
2021/01/03 13:45:13;;;;;;;34.30;14.93;;;;;;;;;;5053916;28;20017;-76
2021/01/03 13:47:39;;;;;;;33.75;17.33;;;;;;;;;;5052602;28;20064;-75
2021/01/03 13:50:06;;;;;;;32.63;15.57;;;;;;;;;;5054121;28;20021;-75
2021/01/03 13:52:33;;;;;;;33.83;14.15;;;;;;;;;;5053740;28;20350;-75
2021/01/03 13:54:59;;;;;;;32.20;13.27;;;;;;;;;;5052610;28;20017;-75
2021/01/03 13:57:25;;;;;;;22.90;13.93;;;;;;;;;;5052043;28;20021;-75
2021/01/03 13:59:51;;;;;;;22.67;13.52;;;;;;;;;;5054234;28;20074;-76
2021/01/03 14:02:17;;;;;;;23.50;12.23;;;;;;;;;;5052674;28;20017;-75
2021/01/03 14:04:43;;;;;;;22.27;12.45;;;;;;;;;;5052394;28;20021;-75
2021/01/03 14:07:10;;;;;;;20.88;11.32;;;;;;;;;;5052238;28;20503;-75
2021/01/03 14:09:36;;;;;;;27.85;11.88;;;;;;;;;;5053768;28;20013;-75
2021/01/03 14:12:02;;;;;;;28.77;11.20;;;;;;;;;;5053725;28;20032;-76
2021/01/03 14:14:28;;;;;;;24.90;11.95;;;;;;;;;;5062998;28;20023;-76
2021/01/03 14:16:57;;;;;;;25.27;11.88;;;;;;;;;;5073577;28;20040;-75
2021/01/03 14:19:24;;;;;;;20.52;11.30;;;;;;;;;;5071859;28;20028;-76
2021/01/03 14:21:50;;;;;;;23.83;11.93;;;;;;;;;;5073327;28;20078;-75
2021/01/03 14:24:17;;;;;;;20.70;11.50;;;;;;;;;;5072176;28;20401;-75
2021/01/03 14:26:44;;;;;;;24.85;13.13;;;;;;;;;;5071899;28;20051;-75
2021/01/03 14:29:12;;;;;;;22.48;12.57;;;;;;;;;;5072028;28;20020;-76